Time;durP1;ratioP1;P1;durP2;ratioP2;P2;SDS_P1;SDS_P2;PMS_P1;PMS_P2;Temp;Humidity;BMP_temperature;BMP_pressure;BME280_temperature;BME280_humidity;BME280_pressure;Samples;Min_cycle;Max_cycle;Signal;HPM_P1;HPM_P2
2022/04/22 04:01:43;;;;;;;46.50;26.45;;;5.60;99.90;;;;;;6266554;22;20028;-72
2022/04/22 04:04:08;;;;;;;46.40;26.90;;;5.70;99.90;;;;;;6283845;22;20099;-72
2022/04/22 04:06:35;;;;;;;47.10;26.58;;;5.80;99.90;;;;;;6283805;22;20116;-72
2022/04/22 04:17:14;;;;;;;45.65;27.25;;;5.90;99.90;;;;;;6283834;22;20016;-76
2022/04/22 04:25:11;;;;;;;43.88;25.73;;;5.90;99.90;;;;;;6283451;22;20428;-76
2022/04/22 04:27:38;;;;;;;45.60;26.48;;;5.80;99.90;;;;;;6282757;22;20012;-75
2022/04/22 04:30:05;;;;;;;45.25;26.73;;;5.80;99.90;;;;;;6283249;22;20023;-76
2022/04/22 04:32:31;;;;;;;44.38;26.05;;;5.70;99.90;;;;;;6283754;22;20008;-76
2022/04/22 04:34:56;;;;;;;42.88;26.25;;;5.70;99.90;;;;;;6283353;22;20004;-76
2022/04/22 04:37:22;;;;;;;47.83;27.48;;;5.70;99.90;;;;;;6283497;22;20146;-76
2022/04/22 04:39:47;;;;;;;43.97;26.73;;;5.60;99.90;;;;;;6282921;22;20317;-75
2022/04/22 04:42:13;;;;;;;45.35;26.35;;;5.60;99.90;;;;;;6283160;22;20388;-75
2022/04/22 04:44:38;;;;;;;45.38;26.35;;;5.60;99.90;;;;;;6283360;22;20083;-76
2022/04/22 04:47:04;;;;;;;47.08;27.30;;;5.80;99.90;;;;;;6283072;22;20083;-76
2022/04/22 04:49:30;;;;;;;50.58;28.23;;;5.80;99.90;;;;;;6283670;22;20007;-76
2022/04/22 04:51:57;;;;;;;43.92;26.73;;;5.80;99.90;;;;;;6283279;22;20043;-75
2022/04/22 04:54:23;;;;;;;45.80;26.75;;;5.80;99.90;;;;;;6281407;22;20039;-76
2022/04/22 04:56:50;;;;;;;45.03;26.65;;;5.80;99.90;;;;;;6281544;22;20012;-76
2022/04/22 04:59:16;;;;;;;46.42;27.25;;;5.80;99.90;;;;;;6289333;22;20738;-78
2022/04/22 05:01:42;;;;;;;48.70;27.80;;;5.80;99.90;;;;;;6287287;22;20016;-78
2022/04/22 05:04:07;;;;;;;47.60;26.65;;;5.90;99.90;;;;;;6288425;22;20004;-77
2022/04/22 05:06:33;;;;;;;45.15;27.27;;;6.00;99.90;;;;;;6283672;22;20012;-77
2022/04/22 05:08:59;;;;;;;44.92;26.85;;;6.10;99.90;;;;;;6281216;22;20431;-77
2022/04/22 05:11:24;;;;;;;45.92;26.60;;;6.10;99.90;;;;;;6283301;22;20091;-77
2022/04/22 05:13:50;;;;;;;43.35;26.35;;;6.20;99.90;;;;;;6281393;22;20012;-77
2022/04/22 05:16:15;;;;;;;43.65;26.80;;;6.20;99.90;;;;;;6282439;22;20016;-77
2022/04/22 05:18:41;;;;;;;48.70;26.40;;;6.20;99.90;;;;;;6282486;22;20011;-77
2022/04/22 05:21:07;;;;;;;42.53;25.67;;;6.20;99.90;;;;;;6284560;22;20071;-76
2022/04/22 05:23:33;;;;;;;42.85;26.45;;;6.30;99.90;;;;;;6282737;22;20012;-77
2022/04/22 05:26:01;;;;;;;43.42;26.35;;;6.30;99.90;;;;;;6255488;22;20016;-75
2022/04/22 05:28:27;;;;;;;40.22;25.17;;;6.30;99.90;;;;;;6283163;22;20328;-77
2022/04/22 05:33:37;;;;;;;43.03;25.90;;;6.40;99.90;;;;;;6284203;22;20491;-77
2022/04/22 05:36:03;;;;;;;44.72;26.45;;;6.50;99.90;;;;;;6286051;22;20044;-77
2022/04/22 05:38:29;;;;;;;44.53;26.33;;;6.50;99.90;;;;;;6259135;22;20011;-77
2022/04/22 05:40:54;;;;;;;41.78;24.90;;;6.60;99.90;;;;;;6288067;22;20004;-77
2022/04/22 05:43:20;;;;;;;42.92;25.55;;;6.70;99.90;;;;;;6287973;22;20012;-77
2022/04/22 05:45:46;;;;;;;44.38;25.92;;;6.70;99.90;;;;;;6288402;22;20013;-77
2022/04/22 05:48:11;;;;;;;39.90;24.85;;;6.80;99.90;;;;;;6289947;22;20012;-78
2022/04/22 05:50:37;;;;;;;44.00;26.10;;;6.80;99.90;;;;;;6287843;22;20000;-77
2022/04/22 05:53:03;;;;;;;41.45;25.38;;;6.90;99.90;;;;;;6260275;22;20012;-77
2022/04/22 05:55:32;;;;;;;43.53;25.60;;;7.00;99.90;;;;;;6286393;22;20009;-86
2022/04/22 05:57:59;;;;;;;39.20;24.98;;;7.00;99.90;;;;;;6258732;22;20019;-82
2022/04/22 06:00:26;;;;;;;39.00;24.45;;;7.00;99.90;;;;;;6259219;22;20030;-80
2022/04/22 06:02:52;;;;;;;39.03;24.42;;;7.10;99.90;;;;;;6286852;22;20078;-77
2022/04/22 06:05:20;;;;;;;38.83;23.70;;;7.20;99.90;;;;;;6283920;22;20058;-76
2022/04/22 06:07:46;;;;;;;38.70;24.65;;;7.20;99.90;;;;;;6259696;22;20470;-79
2022/04/22 06:10:31;;;;;;;39.33;23.90;;;7.30;99.90;;;;;;6289492;22;19996;-80
2022/04/22 06:12:58;;;;;;;37.03;22.95;;;7.30;99.90;;;;;;6289290;22;20447;-79
2022/04/22 06:15:24;;;;;;;37.50;22.67;;;7.40;99.90;;;;;;6289065;22;20079;-80
2022/04/22 06:17:50;;;;;;;34.83;22.52;;;7.50;99.90;;;;;;6290206;22;20031;-80
2022/04/22 06:20:15;;;;;;;34.92;22.85;;;7.50;99.90;;;;;;6289809;22;20004;-79
2022/04/22 06:22:42;;;;;;;37.38;23.13;;;7.60;99.90;;;;;;6284316;22;20008;-78
2022/04/22 06:25:09;;;;;;;36.97;22.63;;;7.70;99.90;;;;;;6284027;22;20012;-77
2022/04/22 06:27:39;;;;;;;36.58;22.92;;;7.80;99.90;;;;;;6283832;22;20034;-77
2022/04/22 06:30:16;;;;;;;36.30;22.92;;;7.80;99.90;;;;;;6283687;22;20827;-77
2022/04/22 06:32:49;;;;;;;33.28;21.35;;;7.90;99.90;;;;;;6256946;22;20008;-76
2022/04/22 06:35:18;;;;;;;33.25;20.70;;;8.00;99.90;;;;;;6283669;22;20005;-75
2022/04/22 06:37:46;;;;;;;30.40;21.27;;;8.10;99.90;;;;;;6283415;22;20014;-76
2022/04/22 06:45:48;;;;;;;30.45;19.55;;;8.40;99.90;;;;;;6283236;22;20448;-77
2022/04/22 06:48:35;;;;;;;30.33;20.17;;;8.50;99.90;;;;;;6257233;22;20008;-76
2022/04/22 06:51:06;;;;;;;29.50;20.00;;;8.60;99.90;;;;;;6259006;22;20015;-77
2022/04/22 06:53:32;;;;;;;30.52;19.95;;;8.60;99.90;;;;;;6287496;22;20086;-79
2022/04/22 06:56:00;;;;;;;29.05;18.98;;;8.70;99.90;;;;;;6285773;22;20004;-79
2022/04/22 06:58:28;;;;;;;29.38;19.42;;;8.80;99.90;;;;;;6257552;22;20444;-80
2022/04/22 07:00:53;;;;;;;27.90;18.58;;;8.90;99.90;;;;;;6256927;22;20004;-80
2022/04/22 07:03:19;;;;;;;28.77;17.77;;;9.00;99.90;;;;;;6257630;22;20012;-80
2022/04/22 07:05:47;;;;;;;28.13;18.02;;;9.10;99.90;;;;;;6285736;22;20064;-78
2022/04/22 07:08:14;;;;;;;30.25;18.77;;;9.30;99.90;;;;;;6257245;22;20095;-80
2022/04/22 07:10:41;;;;;;;27.05;18.45;;;9.40;99.90;;;;;;6284387;22;19992;-79
2022/04/22 07:13:10;;;;;;;26.10;16.85;;;9.50;99.90;;;;;;6283960;22;20038;-77
2022/04/22 07:15:39;;;;;;;24.20;17.13;;;9.60;99.90;;;;;;6269974;22;20017;-79
2022/04/22 07:18:06;;;;;;;23.88;17.00;;;9.60;99.90;;;;;;6286497;22;20448;-77
2022/04/22 07:20:33;;;;;;;25.88;17.95;;;9.70;99.90;;;;;;6284676;22;20019;-81
2022/04/22 07:23:01;;;;;;;24.98;17.30;;;9.90;99.90;;;;;;6283974;22;20719;-79
2022/04/22 07:25:28;;;;;;;25.63;16.17;;;10.00;99.90;;;;;;6283410;22;20005;-81
2022/04/22 07:27:54;;;;;;;21.48;15.88;;;10.20;99.90;;;;;;6281323;22;20455;-76
2022/04/22 07:30:22;;;;;;;23.55;17.08;;;10.30;99.90;;;;;;6271942;22;20000;-80
2022/04/22 07:32:49;;;;;;;24.63;17.10;;;10.40;99.90;;;;;;6278673;22;20008;-79
2022/04/22 07:35:20;;;;;;;24.02;16.45;;;10.40;99.90;;;;;;6284627;22;20439;-80
2022/04/22 07:37:51;;;;;;;23.88;17.42;;;10.50;99.90;;;;;;6285056;22;20004;-78
2022/04/22 07:40:53;;;;;;;;;;;;;;;;;;;;;
2022/04/22 07:47:25;;;;;;;23.70;16.73;;;10.90;99.90;;;;;;6283091;22;20738;-77
2022/04/22 07:49:56;;;;;;;21.38;14.95;;;11.20;99.90;;;;;;6158875;23;20408;-77
2022/04/22 07:52:21;;;;;;;22.48;15.73;;;11.20;99.90;;;;;;6269231;22;20008;-76
2022/04/22 07:54:54;;;;;;;20.98;15.02;;;11.40;99.90;;;;;;6282240;22;20008;-77
2022/04/22 07:57:21;;;;;;;23.00;16.17;;;11.60;99.90;;;;;;6284838;22;20004;-82
2022/04/22 07:59:49;;;;;;;20.40;15.23;;;11.90;99.90;;;;;;6284296;22;20077;-80
2022/04/22 08:02:19;;;;;;;20.65;15.23;;;12.10;99.90;;;;;;6284876;22;20012;-78
2022/04/22 08:04:44;;;;;;;23.30;15.73;;;12.00;99.90;;;;;;6283713;22;20487;-76
2022/04/22 08:07:11;;;;;;;22.40;15.18;;;12.10;99.90;;;;;;6284664;22;20012;-78
2022/04/22 08:09:37;;;;;;;21.67;15.60;;;11.80;99.90;;;;;;6283349;22;19996;-79
2022/04/22 08:12:03;;;;;;;21.23;15.55;;;12.10;99.90;;;;;;6285081;22;20444;-78
2022/04/22 08:14:29;;;;;;;23.52;16.35;;;12.00;99.90;;;;;;6284803;22;20001;-77
2022/04/22 08:16:55;;;;;;;21.75;15.30;;;12.20;99.90;;;;;;6285853;22;20012;-78
2022/04/22 08:19:24;;;;;;;22.17;16.60;;;12.40;99.90;;;;;;6279204;22;20012;-77
2022/04/22 08:21:52;;;;;;;21.85;15.90;;;12.60;99.90;;;;;;6276585;22;20099;-77
2022/04/22 08:24:18;;;;;;;19.98;15.50;;;12.70;99.90;;;;;;6256908;22;20079;-77
2022/04/22 08:26:47;;;;;;;19.85;14.80;;;12.70;99.90;;;;;;6285798;22;20083;-80
2022/04/22 08:29:13;;;;;;;21.05;15.77;;;12.80;99.90;;;;;;6284488;22;20008;-77
2022/04/22 08:31:38;;;;;;;20.20;15.05;;;12.80;99.90;;;;;;6283988;22;20012;-76
2022/04/22 08:34:04;;;;;;;21.65;15.55;;;13.10;99.90;;;;;;6283742;22;20008;-77
2022/04/22 08:36:31;;;;;;;19.50;14.85;;;13.20;99.90;;;;;;6282932;22;20012;-77
2022/04/22 08:39:00;;;;;;;17.98;14.27;;;13.30;99.90;;;;;;6255660;22;20004;-77
2022/04/22 08:41:35;;;;;;;20.08;15.45;;;13.40;99.90;;;;;;6283024;22;20008;-77
2022/04/22 08:44:07;;;;;;;19.17;14.63;;;13.60;99.90;;;;;;6284862;22;20095;-77
2022/04/22 08:52:45;;;;;;;22.38;15.50;;;13.90;99.90;;;;;;6283825;22;20087;-78
2022/04/22 08:55:32;;;;;;;22.48;15.02;;;13.80;98.80;;;;;;6242721;22;20009;-77
2022/04/22 09:01:27;;;;;;;21.27;15.60;;;13.70;99.10;;;;;;6246101;22;20016;-77
2022/04/22 09:03:55;;;;;;;19.95;14.90;;;13.40;99.60;;;;;;6284257;22;20047;-77
2022/04/22 09:06:25;;;;;;;20.55;15.73;;;13.50;99.90;;;;;;6282169;22;20008;-77
2022/04/22 09:08:56;;;;;;;18.10;14.88;;;13.60;99.10;;;;;;6283417;22;20008;-76
2022/04/22 09:11:44;;;;;;;;;;;;;;;;;;;;;
2022/04/22 09:14:28;;;;;;;19.70;14.77;;;14.10;98.60;;;;;;6281698;22;40361;-76
2022/04/22 09:16:53;;;;;;;18.08;14.27;;;14.40;99.00;;;;;;6255824;22;20008;-75
2022/04/22 09:19:21;;;;;;;17.20;14.45;;;14.80;98.60;;;;;;6282474;22;20012;-76
2022/04/22 09:22:20;;;;;;;21.45;14.32;;;15.00;97.10;;;;;;6282962;22;20012;-77
2022/04/22 09:24:53;;;;;;;21.38;16.00;;;14.90;96.40;;;;;;6243601;22;20461;-76
2022/04/22 09:27:29;;;;;;;17.67;14.45;;;14.80;96.50;;;;;;6281490;22;20004;-77
2022/04/22 09:29:55;;;;;;;20.50;16.05;;;14.70;97.30;;;;;;6280467;22;20066;-77
2022/04/22 09:32:28;;;;;;;19.13;14.18;;;14.60;97.00;;;;;;6282426;22;20386;-77
2022/04/22 09:35:06;;;;;;;19.08;14.35;;;14.70;96.90;;;;;;6254896;22;20011;-77
2022/04/22 09:43:24;;;;;;;17.75;14.50;;;15.40;95.90;;;;;;6283154;22;20008;-77
2022/04/22 09:45:52;;;;;;;18.65;14.48;;;15.50;95.00;;;;;;6254958;22;20066;-77
2022/04/22 09:48:20;;;;;;;18.98;14.80;;;15.30;95.30;;;;;;6284373;22;20008;-77
2022/04/22 09:50:54;;;;;;;19.88;14.80;;;15.20;95.60;;;;;;6284352;22;20062;-76
2022/04/22 09:53:33;;;;;;;17.83;14.57;;;15.30;96.10;;;;;;6284010;22;20004;-76
2022/04/22 09:56:12;;;;;;;19.10;14.95;;;15.60;94.60;;;;;;6255321;22;20015;-82
2022/04/22 09:58:38;;;;;;;19.10;14.73;;;15.90;93.90;;;;;;6256801;22;20012;-78
2022/04/22 10:01:06;;;;;;;20.40;15.68;;;16.20;93.70;;;;;;6284444;22;20027;-76
2022/04/22 10:03:36;;;;;;;19.88;14.63;;;16.30;93.80;;;;;;6257523;22;20023;-80
2022/04/22 10:06:07;;;;;;;23.83;15.55;;;16.10;92.40;;;;;;6283343;22;20005;-83
2022/04/22 10:08:37;;;;;;;20.45;15.18;;;16.10;93.60;;;;;;6255854;22;20008;-78
2022/04/22 10:11:10;;;;;;;18.02;14.88;;;16.00;93.80;;;;;;6286272;22;20035;-78
2022/04/22 10:13:46;;;;;;;18.05;15.10;;;15.80;93.60;;;;;;6256289;22;20123;-78
2022/04/22 10:16:13;;;;;;;20.15;15.52;;;15.50;94.50;;;;;;6284381;22;20086;-78
2022/04/22 10:18:58;;;;;;;20.63;15.65;;;15.70;94.20;;;;;;6257009;22;20133;-78
2022/04/22 10:21:24;;;;;;;19.92;15.80;;;15.80;94.30;;;;;;6284107;22;20000;-77
2022/04/22 10:23:52;;;;;;;18.20;15.43;;;16.20;92.70;;;;;;6281996;22;20337;-77
2022/04/22 10:26:18;;;;;;;17.33;15.10;;;16.60;92.10;;;;;;6284581;22;20039;-77
2022/04/22 10:28:46;;;;;;;17.95;14.75;;;16.50;92.50;;;;;;6258878;22;20020;-76
2022/04/22 10:31:12;;;;;;;19.02;15.18;;;15.90;92.60;;;;;;6257683;22;20008;-78
2022/04/22 10:33:43;;;;;;;21.33;16.65;;;16.10;92.80;;;;;;6259169;22;20012;-78
2022/04/22 10:36:15;;;;;;;17.77;14.93;;;16.40;92.30;;;;;;6287128;22;20011;-77
2022/04/22 10:38:43;;;;;;;20.65;15.02;;;16.60;91.60;;;;;;6288556;22;20004;-77
2022/04/22 10:41:16;;;;;;;23.88;17.30;;;16.60;91.80;;;;;;6261867;22;20036;-76
2022/04/22 10:43:42;;;;;;;18.75;15.13;;;16.90;91.40;;;;;;6284217;22;20020;-77
2022/04/22 10:49:13;;;;;;;19.85;15.07;;;16.90;90.30;;;;;;6284840;22;20012;-78
2022/04/22 10:52:20;;;;;;;18.25;14.70;;;17.20;90.00;;;;;;6255437;22;20095;-77
2022/04/22 10:54:58;;;;;;;19.90;14.32;;;17.20;89.80;;;;;;6280559;22;20012;-76
2022/04/22 10:57:33;;;;;;;17.80;14.63;;;17.60;90.60;;;;;;6255248;22;20035;-77
2022/04/22 11:00:11;;;;;;;15.85;14.18;;;17.50;90.90;;;;;;6259895;22;20432;-80
2022/04/22 11:02:40;;;;;;;18.67;14.02;;;17.50;90.60;;;;;;6283585;22;20016;-77
2022/04/22 11:05:20;;;;;;;21.27;14.88;;;17.60;89.30;;;;;;6285425;22;20000;-79
2022/04/22 11:07:55;;;;;;;15.73;13.88;;;17.80;89.70;;;;;;6285616;22;20011;-79
2022/04/22 11:10:22;;;;;;;17.42;13.60;;;17.70;90.00;;;;;;6286215;22;20131;-78
2022/04/22 11:12:55;;;;;;;15.02;13.43;;;18.20;90.20;;;;;;6286111;22;20042;-78
2022/04/22 11:15:42;;;;;;;14.80;12.57;;;18.60;88.30;;;;;;6285996;22;20028;-78
2022/04/22 11:18:12;;;;;;;18.42;12.65;;;18.90;82.80;;;;;;6285080;22;20035;-79
2022/04/22 11:20:44;;;;;;;13.95;12.45;;;18.90;84.20;;;;;;6284472;22;20004;-79
2022/04/22 11:23:14;;;;;;;16.15;13.43;;;18.90;83.60;;;;;;6257201;22;20040;-80
2022/04/22 11:25:41;;;;;;;15.45;12.90;;;19.00;82.40;;;;;;6283031;22;20001;-80
2022/04/22 11:28:08;;;;;;;15.13;12.85;;;19.00;82.10;;;;;;6284565;22;20011;-83
2022/04/22 11:30:35;;;;;;;17.08;12.02;;;19.30;82.80;;;;;;6284149;22;20004;-79
2022/04/22 11:33:21;;;;;;;15.15;11.75;;;19.00;81.90;;;;;;6283767;22;20042;-78
2022/04/22 11:35:56;;;;;;;13.38;11.32;;;19.30;82.20;;;;;;6283408;22;20011;-80
2022/04/22 11:38:22;;;;;;;14.13;12.60;;;19.40;79.90;;;;;;6255727;22;20015;-77
2022/04/22 11:40:49;;;;;;;14.38;12.88;;;19.30;78.50;;;;;;6284039;22;20004;-81
2022/04/22 11:43:15;;;;;;;15.82;12.52;;;19.30;78.70;;;;;;6283469;22;20138;-79
2022/04/22 11:45:44;;;;;;;15.95;12.07;;;19.60;80.80;;;;;;6283594;22;20084;-79
2022/04/22 11:48:11;;;;;;;14.80;12.73;;;20.10;79.80;;;;;;6284337;22;20008;-79
2022/04/22 11:50:44;;;;;;;14.10;11.50;;;20.10;77.80;;;;;;6281584;22;20004;-78
2022/04/22 11:53:37;;;;;;;13.85;11.68;;;20.30;75.40;;;;;;6252194;22;20012;-78
2022/04/22 11:56:04;;;;;;;12.98;11.35;;;20.60;75.70;;;;;;6272601;22;20059;-79
2022/04/22 11:58:32;;;;;;;15.90;11.60;;;20.70;76.60;;;;;;6280682;22;20050;-78
2022/04/22 12:06:29;;;;;;;14.38;11.70;;;20.60;75.20;;;;;;6280270;22;20012;-79
2022/04/22 12:09:02;;;;;;;12.68;11.35;;;20.40;75.50;;;;;;6278319;22;20480;-79
2022/04/22 12:11:29;;;;;;;12.35;10.98;;;20.80;74.80;;;;;;6280271;22;20004;-78
2022/04/22 12:13:55;;;;;;;13.35;10.93;;;21.00;73.80;;;;;;6277618;22;20070;-79
2022/04/22 12:16:23;;;;;;;12.93;10.88;;;21.00;71.60;;;;;;6277119;22;20012;-75
2022/04/22 12:18:50;;;;;;;13.80;11.50;;;20.70;71.50;;;;;;6281155;22;20839;-76
2022/04/22 12:21:17;;;;;;;13.50;12.00;;;20.50;71.80;;;;;;6283502;22;20005;-76
2022/04/22 12:23:45;;;;;;;14.10;11.18;;;20.50;72.70;;;;;;6283256;22;20016;-75
2022/04/22 12:26:19;;;;;;;12.15;10.48;;;20.60;74.90;;;;;;6283297;22;19993;-75
2022/04/22 12:29:00;;;;;;;11.48;10.27;;;21.10;71.00;;;;;;6283175;22;20008;-75
2022/04/22 12:31:28;;;;;;;14.55;10.73;;;21.10;72.90;;;;;;6283294;22;20000;-77
2022/04/22 12:34:04;;;;;;;16.42;11.63;;;21.50;70.30;;;;;;6281318;22;20019;-77
2022/04/22 12:36:53;;;;;;;14.05;11.07;;;22.00;68.60;;;;;;6280952;22;20731;-77
2022/04/22 12:39:51;;;;;;;13.35;10.93;;;22.10;70.00;;;;;;6283580;22;20008;-77
2022/04/22 12:42:17;;;;;;;15.57;10.90;;;22.20;66.00;;;;;;6215260;22;20091;-77
2022/04/22 12:52:07;;;;;;;10.70;9.60;;;22.30;67.70;;;;;;6281637;22;20091;-77
2022/04/22 12:52:57;;;;;;;12.85;10.38;;;22.90;65.30;;;;;;6282755;22;20040;-78
2022/04/22 12:55:23;;;;;;;14.65;10.00;;;22.70;64.00;;;;;;6282508;22;20036;-78
2022/04/22 12:57:58;;;;;;;11.10;8.40;;;22.90;67.60;;;;;;6282889;22;20105;-78
2022/04/22 13:00:25;;;;;;;11.88;8.20;;;23.10;66.40;;;;;;6283170;22;20087;-78
2022/04/22 13:02:50;;;;;;;9.80;8.80;;;22.70;65.50;;;;;;6282824;22;20095;-78
2022/04/22 13:05:22;;;;;;;10.38;7.65;;;22.60;62.70;;;;;;6282935;22;20396;-78
2022/04/22 13:07:50;;;;;;;11.45;8.48;;;22.80;62.40;;;;;;6282859;22;20437;-78
2022/04/22 13:10:17;;;;;;;11.55;8.80;;;22.80;62.10;;;;;;6282783;22;20118;-78
2022/04/22 13:12:44;;;;;;;10.70;8.40;;;22.50;62.50;;;;;;6282989;22;20008;-78
2022/04/22 13:15:18;;;;;;;12.07;9.10;;;22.90;63.90;;;;;;6282070;22;20008;-78
2022/04/22 13:17:45;;;;;;;8.68;7.75;;;23.10;63.30;;;;;;6282579;22;20031;-78
2022/04/22 13:20:14;;;;;;;11.82;8.05;;;22.90;61.10;;;;;;6282516;22;20403;-78
2022/04/22 13:22:40;;;;;;;10.75;8.57;;;22.70;61.20;;;;;;6283002;22;20008;-78
2022/04/22 13:25:10;;;;;;;9.35;8.20;;;22.70;59.90;;;;;;6282817;22;20395;-78
2022/04/22 13:27:35;;;;;;;10.93;8.27;;;22.70;62.60;;;;;;6282869;22;20011;-78
2022/04/22 13:30:01;;;;;;;9.02;7.53;;;22.90;61.00;;;;;;6255042;22;20031;-78
2022/04/22 13:32:27;;;;;;;15.45;8.10;;;23.00;62.70;;;;;;6255243;22;20440;-78
2022/04/22 13:34:52;;;;;;;11.15;7.70;;;22.70;59.30;;;;;;6282499;22;20004;-78
2022/04/22 13:37:18;;;;;;;11.82;8.32;;;22.90;60.80;;;;;;6282553;22;20090;-78
2022/04/22 13:39:44;;;;;;;10.05;9.02;;;23.40;60.20;;;;;;6282558;22;20351;-78
2022/04/22 13:42:09;;;;;;;9.85;8.55;;;23.80;60.00;;;;;;6282449;22;20046;-78
2022/04/22 13:52:47;;;;;;;7.82;6.25;;;26.30;53.20;;;;;;6282710;22;20035;-79
2022/04/22 13:55:13;;;;;;;8.60;7.53;;;28.00;51.20;;;;;;6255067;22;20008;-79
2022/04/22 13:57:39;;;;;;;9.07;7.65;;;27.30;49.60;;;;;;6282404;22;20317;-78
2022/04/22 14:00:06;;;;;;;8.98;7.85;;;26.90;50.90;;;;;;6256165;22;20027;-78
2022/04/22 14:02:32;;;;;;;8.60;7.68;;;26.80;52.70;;;;;;6283941;22;20012;-78
2022/04/22 14:04:58;;;;;;;9.30;8.10;;;26.50;53.70;;;;;;6283470;22;20008;-78
2022/04/22 14:07:23;;;;;;;10.77;7.75;;;26.90;54.00;;;;;;6256575;22;20012;-78
2022/04/22 14:09:49;;;;;;;12.20;7.78;;;27.70;49.90;;;;;;6283464;22;20004;-78
2022/04/22 14:12:15;;;;;;;9.60;7.03;;;28.70;46.80;;;;;;6283924;22;20042;-76
2022/04/22 14:14:43;;;;;;;10.15;7.65;;;27.10;49.30;;;;;;6283300;22;20028;-77
2022/04/22 14:17:09;;;;;;;9.77;7.07;;;26.90;49.70;;;;;;6256482;22;20004;-77
2022/04/22 14:19:36;;;;;;;9.38;6.68;;;26.90;48.30;;;;;;6283454;22;20000;-77
2022/04/22 14:22:02;;;;;;;8.25;6.88;;;28.00;50.00;;;;;;6283446;22;20162;-77
2022/04/22 14:24:29;;;;;;;8.40;6.40;;;28.80;50.00;;;;;;6283488;22;20498;-77
2022/04/22 14:26:54;;;;;;;7.57;6.72;;;30.00;46.70;;;;;;6283726;22;20005;-77
2022/04/22 14:29:21;;;;;;;11.82;7.55;;;30.30;45.10;;;;;;6282561;22;20009;-78
2022/04/22 14:31:47;;;;;;;8.15;7.35;;;28.20;45.60;;;;;;6283583;22;20031;-78
2022/04/22 14:34:13;;;;;;;7.85;7.13;;;27.90;47.10;;;;;;6283319;22;20035;-77
2022/04/22 14:36:39;;;;;;;8.57;6.85;;;26.60;48.10;;;;;;6256252;22;20391;-77
2022/04/22 14:39:05;;;;;;;8.90;7.18;;;27.00;48.90;;;;;;6283297;22;20412;-78
2022/04/22 14:41:30;;;;;;;7.97;7.18;;;27.80;48.90;;;;;;6283670;22;20531;-78
2022/04/22 14:43:56;;;;;;;8.73;7.18;;;28.20;47.50;;;;;;6283659;22;20514;-78
2022/04/22 14:46:23;;;;;;;7.22;6.53;;;27.80;45.90;;;;;;6283408;22;20032;-79
2022/04/22 14:48:48;;;;;;;8.80;7.07;;;26.90;47.20;;;;;;6283215;22;20008;-77
2022/04/22 14:51:14;;;;;;;10.85;6.45;;;26.40;51.40;;;;;;6283861;22;20001;-77
2022/04/22 14:53:40;;;;;;;7.13;6.28;;;26.50;49.70;;;;;;6283801;22;20012;-78
2022/04/22 14:56:05;;;;;;;7.90;6.68;;;27.20;51.10;;;;;;6282940;22;20046;-78
2022/04/22 14:58:31;;;;;;;8.40;6.50;;;27.60;49.10;;;;;;6283413;22;20008;-78
2022/04/22 15:00:56;;;;;;;8.18;6.35;;;28.60;46.10;;;;;;6283850;22;20074;-77
2022/04/22 15:03:22;;;;;;;10.82;8.10;;;28.30;47.40;;;;;;6287957;22;20344;-78
2022/04/22 15:05:51;;;;;;;7.75;6.68;;;26.80;47.40;;;;;;6257427;22;20000;-77
2022/04/22 15:08:17;;;;;;;10.80;6.63;;;27.60;49.80;;;;;;6283521;22;20031;-77
2022/04/22 15:10:43;;;;;;;7.47;6.47;;;27.70;47.40;;;;;;6284980;22;20008;-77
2022/04/22 15:13:11;;;;;;;9.15;5.72;;;28.20;46.50;;;;;;6285318;22;20023;-78
2022/04/22 15:15:40;;;;;;;9.68;5.95;;;29.70;45.00;;;;;;6267980;22;20012;-78
2022/04/22 15:26:18;;;;;;;7.03;5.60;;;30.00;42.90;;;;;;6285244;22;20004;-78
2022/04/22 15:28:44;;;;;;;7.13;5.70;;;30.00;42.70;;;;;;6284274;22;20004;-77
2022/04/22 15:31:13;;;;;;;9.30;5.60;;;30.60;43.40;;;;;;6284059;22;20092;-78
2022/04/22 15:33:41;;;;;;;6.13;5.53;;;31.90;43.10;;;;;;6283514;22;20016;-77
2022/04/22 15:36:08;;;;;;;6.55;5.95;;;31.80;42.20;;;;;;6284170;22;20423;-77
2022/04/22 15:38:37;;;;;;;6.32;5.72;;;30.70;41.80;;;;;;6284071;22;20063;-79
2022/04/22 15:41:08;;;;;;;8.45;6.15;;;30.50;40.80;;;;;;6284390;22;20058;-78
2022/04/22 15:43:39;;;;;;;6.80;6.10;;;30.50;41.50;;;;;;6283562;22;20440;-77
2022/04/22 15:46:05;;;;;;;9.63;6.25;;;29.60;42.40;;;;;;6283959;22;20009;-79
2022/04/22 15:48:32;;;;;;;6.65;5.95;;;29.20;43.20;;;;;;6284165;22;20004;-77
2022/04/22 15:51:00;;;;;;;7.75;6.00;;;29.70;43.50;;;;;;6285148;22;20083;-79
2022/04/22 15:53:26;;;;;;;6.40;5.72;;;30.10;42.40;;;;;;6284315;22;20075;-78
2022/04/22 15:55:51;;;;;;;9.60;6.05;;;30.50;43.40;;;;;;6284291;22;20440;-80
2022/04/22 15:58:17;;;;;;;7.07;6.03;;;30.80;43.80;;;;;;6284115;22;20008;-78
2022/04/22 16:00:43;;;;;;;6.47;5.85;;;29.70;42.50;;;;;;6289023;22;20042;-79
2022/04/22 16:03:12;;;;;;;7.95;5.97;;;30.50;43.60;;;;;;6291327;22;20027;-78
2022/04/22 16:05:41;;;;;;;6.85;5.47;;;30.40;42.50;;;;;;6287744;22;20466;-79
2022/04/22 16:08:13;;;;;;;9.60;5.68;;;31.10;41.40;;;;;;6286891;22;20004;-79
2022/04/22 16:10:39;;;;;;;11.45;5.90;;;30.60;45.20;;;;;;6283956;22;20004;-77
2022/04/22 16:15:51;;;;;;;8.68;5.97;;;29.40;42.90;;;;;;6283588;22;20009;-77
2022/04/22 16:18:19;;;;;;;11.02;6.05;;;26.10;47.30;;;;;;6283394;22;20004;-77
2022/04/22 16:20:46;;;;;;;8.07;6.10;;;24.70;50.00;;;;;;6283668;22;20000;-78
2022/04/22 16:23:11;;;;;;;7.35;5.85;;;24.10;51.60;;;;;;6282660;22;20054;-78
2022/04/22 16:25:37;;;;;;;7.47;5.80;;;24.00;52.50;;;;;;6283349;22;20032;-78
2022/04/22 16:28:03;;;;;;;8.05;5.70;;;23.10;53.10;;;;;;6283075;22;20063;-77
2022/04/22 16:30:31;;;;;;;8.30;6.13;;;23.60;53.60;;;;;;6284112;22;20000;-78
2022/04/22 16:33:00;;;;;;;9.27;6.10;;;24.40;52.10;;;;;;6283558;22;20008;-77
2022/04/22 16:35:27;;;;;;;7.95;6.15;;;24.50;50.90;;;;;;6283493;22;20435;-77
2022/04/22 16:37:53;;;;;;;7.25;5.55;;;24.50;51.40;;;;;;6284095;22;20004;-78
2022/04/22 16:40:19;;;;;;;9.32;5.88;;;26.00;50.20;;;;;;6283777;22;20457;-77
2022/04/22 16:42:44;;;;;;;8.68;5.82;;;25.90;48.50;;;;;;6282991;22;20087;-77
2022/04/22 16:45:13;;;;;;;6.43;5.82;;;27.10;47.10;;;;;;6283366;22;20000;-77
2022/04/22 16:47:39;;;;;;;6.95;5.70;;;27.90;46.20;;;;;;6283699;22;20036;-77
2022/04/22 16:50:07;;;;;;;6.32;5.43;;;28.90;44.90;;;;;;6283586;22;20000;-77
2022/04/22 16:52:33;;;;;;;6.15;5.25;;;27.50;45.70;;;;;;6255988;22;20012;-79
2022/04/22 16:54:59;;;;;;;6.07;5.47;;;27.20;46.80;;;;;;6256120;22;20027;-78
2022/04/22 16:57:25;;;;;;;7.78;5.68;;;26.30;48.20;;;;;;6257008;22;20031;-77
2022/04/22 16:59:51;;;;;;;6.65;5.70;;;24.90;51.20;;;;;;6283258;22;20379;-77
2022/04/22 17:02:17;;;;;;;6.10;5.25;;;23.60;53.20;;;;;;6283309;22;20070;-77
2022/04/22 17:04:49;;;;;;;9.02;5.65;;;22.80;55.20;;;;;;6282855;22;20004;-77
2022/04/22 17:07:16;;;;;;;9.43;5.38;;;21.80;56.70;;;;;;6256144;22;20478;-77
2022/04/22 17:09:42;;;;;;;7.47;5.72;;;21.20;58.10;;;;;;6286357;22;20000;-78
2022/04/22 17:12:08;;;;;;;6.18;5.57;;;20.40;60.00;;;;;;6283810;22;20011;-79
2022/04/22 17:22:46;;;;;;;6.80;5.57;;;19.00;63.90;;;;;;6286535;22;20016;-78
2022/04/22 17:25:14;;;;;;;7.47;5.80;;;19.00;65.00;;;;;;6286682;22;20004;-80
2022/04/22 17:27:41;;;;;;;9.90;6.25;;;18.90;64.90;;;;;;6257261;22;20004;-77
2022/04/22 17:30:08;;;;;;;8.90;5.95;;;18.90;64.80;;;;;;6285910;22;20004;-77
2022/04/22 17:32:34;;;;;;;7.82;5.95;;;18.80;65.10;;;;;;6285103;22;20019;-77
2022/04/22 17:35:00;;;;;;;9.70;6.20;;;18.80;65.70;;;;;;6285765;22;20004;-78
2022/04/22 17:37:25;;;;;;;7.43;6.53;;;18.60;65.90;;;;;;6287141;22;20008;-78
2022/04/22 17:39:51;;;;;;;10.70;6.47;;;18.40;66.30;;;;;;6258778;22;20459;-78
2022/04/22 17:42:16;;;;;;;11.05;6.60;;;18.30;66.70;;;;;;6286122;22;20027;-78
2022/04/22 17:44:42;;;;;;;9.05;5.53;;;18.10;67.90;;;;;;6259774;22;20004;-78
2022/04/22 17:47:09;;;;;;;7.40;5.80;;;18.00;69.10;;;;;;6286437;22;20056;-78
2022/04/22 17:49:35;;;;;;;7.32;5.43;;;17.80;68.90;;;;;;6286238;22;20033;-77
2022/04/22 17:52:09;;;;;;;8.88;5.90;;;17.60;69.20;;;;;;6285776;22;20428;-78
2022/04/22 17:54:35;;;;;;;8.27;6.03;;;17.40;69.70;;;;;;6286428;22;20004;-78
2022/04/22 17:57:03;;;;;;;11.10;5.75;;;17.30;70.50;;;;;;6286490;22;20008;-77
2022/04/22 17:59:31;;;;;;;10.45;6.20;;;17.10;71.10;;;;;;6286213;22;20051;-78
2022/04/22 18:01:59;;;;;;;8.05;6.18;;;16.90;72.20;;;;;;6286262;22;20015;-80
2022/04/22 18:04:25;;;;;;;12.77;6.40;;;16.80;73.40;;;;;;6258963;22;20475;-77
2022/04/22 18:06:51;;;;;;;6.90;6.03;;;16.70;72.90;;;;;;6261241;22;20060;-77
2022/04/22 18:09:19;;;;;;;9.35;6.32;;;16.50;73.00;;;;;;6286467;22;20008;-77